Time;durP1;ratioP1;P1;durP2;ratioP2;P2;SDS_P1;SDS_P2;PMS_P1;PMS_P2;Temp;Humidity;BMP_temperature;BMP_pressure;BME280_temperature;BME280_humidity;BME280_pressure;Samples;Min_cycle;Max_cycle;Signal;HPM_P1;HPM_P2
2022/08/30 00:03:17;;;;;;;4.88;1.60;;;16.00;99.90;;;;;;5071902;28;20040;-48
2022/08/30 00:05:43;;;;;;;7.13;1.83;;;16.00;99.90;;;;;;5072283;28;20028;-51
2022/08/30 00:08:10;;;;;;;4.85;1.35;;;16.00;99.90;;;;;;5072078;28;20165;-48
2022/08/30 00:10:37;;;;;;;8.40;2.22;;;16.00;99.90;;;;;;5072090;28;20036;-47
2022/08/30 00:13:05;;;;;;;8.57;1.77;;;16.00;99.90;;;;;;5072169;28;20021;-46
2022/08/30 00:15:31;;;;;;;4.72;1.50;;;16.00;99.90;;;;;;5072156;28;20486;-47
2022/08/30 00:17:57;;;;;;;4.70;1.60;;;16.00;99.90;;;;;;5072370;28;20043;-48
2022/08/30 00:20:27;;;;;;;7.70;1.70;;;16.00;99.90;;;;;;5071894;28;20017;-46
2022/08/30 00:22:52;;;;;;;4.90;1.63;;;16.00;99.90;;;;;;5072205;28;20024;-50
2022/08/30 00:25:18;;;;;;;5.32;2.28;;;16.00;99.90;;;;;;5072020;28;20033;-54
2022/08/30 00:27:44;;;;;;;7.00;1.38;;;16.00;99.90;;;;;;5072112;28;20131;-50
2022/08/30 00:30:12;;;;;;;6.38;1.83;;;16.00;99.90;;;;;;5071959;28;20033;-49
2022/08/30 00:32:38;;;;;;;9.20;1.92;;;15.90;99.90;;;;;;5071610;28;20032;-56
2022/08/30 00:35:07;;;;;;;7.78;1.60;;;15.90;99.90;;;;;;5071831;28;20020;-50
2022/08/30 00:37:33;;;;;;;5.53;1.80;;;15.90;99.90;;;;;;5071838;28;20549;-50
2022/08/30 00:39:58;;;;;;;3.50;1.48;;;15.90;99.90;;;;;;5071872;28;20037;-47
2022/08/30 00:42:24;;;;;;;5.88;1.60;;;15.90;99.90;;;;;;5071244;28;20507;-49
2022/08/30 00:44:51;;;;;;;5.55;1.70;;;15.90;99.90;;;;;;5071513;28;20032;-48
2022/08/30 00:47:17;;;;;;;4.30;2.15;;;15.80;99.90;;;;;;5071737;28;20032;-47
2022/08/30 00:49:47;;;;;;;6.28;1.80;;;15.80;99.90;;;;;;5029949;28;1191571;-50
2022/08/30 00:52:14;;;;;;;4.43;1.98;;;15.80;99.90;;;;;;5072416;28;20068;-47
2022/08/30 00:54:44;;;;;;;5.38;1.90;;;15.80;99.90;;;;;;5072535;28;20028;-50
2022/08/30 00:57:12;;;;;;;4.60;1.60;;;15.70;99.90;;;;;;5072582;28;20045;-50
2022/08/30 00:59:39;;;;;;;4.93;1.90;;;15.70;99.90;;;;;;5072442;28;20032;-52
2022/08/30 01:02:05;;;;;;;4.90;1.60;;;15.70;99.90;;;;;;5072323;28;20016;-48
2022/08/30 01:04:32;;;;;;;5.68;1.85;;;15.70;99.90;;;;;;5072348;28;20630;-49
2022/08/30 01:06:59;;;;;;;6.90;1.73;;;15.60;99.90;;;;;;5072259;28;20048;-50
2022/08/30 01:09:25;;;;;;;10.15;2.08;;;15.60;99.90;;;;;;5072162;28;20029;-49
2022/08/30 01:11:52;;;;;;;8.25;2.03;;;15.60;99.90;;;;;;5072164;28;20016;-52
2022/08/30 01:14:20;;;;;;;4.90;1.67;;;15.60;99.90;;;;;;5071426;28;20533;-50
2022/08/30 01:16:46;;;;;;;6.05;1.67;;;15.60;99.90;;;;;;5071929;28;20090;-49
2022/08/30 01:19:39;;;;;;;4.57;1.88;;;15.60;99.90;;;;;;5072149;28;20036;-47
2022/08/30 01:22:36;;;;;;;5.95;1.83;;;15.60;99.90;;;;;;5071759;28;20025;-49
2022/08/30 01:25:06;;;;;;;7.40;1.95;;;15.60;99.90;;;;;;5071697;28;20059;-51
2022/08/30 01:27:33;;;;;;;8.48;2.28;;;15.60;99.90;;;;;;5071751;28;20395;-49
2022/08/30 01:30:00;;;;;;;7.85;2.17;;;15.60;99.90;;;;;;5071786;28;20029;-52
2022/08/30 01:32:28;;;;;;;5.03;1.65;;;15.60;99.90;;;;;;5071418;28;20021;-50
2022/08/30 01:34:55;;;;;;;3.00;1.65;;;15.60;99.90;;;;;;5071622;28;20111;-53
2022/08/30 01:37:27;;;;;;;5.45;1.65;;;15.60;99.90;;;;;;5071713;28;20020;-52
2022/08/30 01:39:53;;;;;;;7.60;1.77;;;15.60;99.90;;;;;;5071625;28;20020;-48
2022/08/30 01:42:20;;;;;;;6.38;2.25;;;15.50;99.90;;;;;;5071466;28;20020;-50
2022/08/30 01:44:47;;;;;;;6.93;1.60;;;15.60;99.90;;;;;;5071502;28;20036;-47
2022/08/30 01:47:14;;;;;;;5.80;1.80;;;15.60;99.90;;;;;;5071734;28;20028;-48
2022/08/30 01:49:40;;;;;;;7.38;2.17;;;15.60;99.90;;;;;;5071279;28;20037;-47
2022/08/30 01:52:07;;;;;;;3.90;1.70;;;15.50;99.90;;;;;;5071292;28;20505;-51
2022/08/30 01:54:36;;;;;;;3.15;1.42;;;15.50;99.90;;;;;;5071407;28;20051;-47
2022/08/30 01:57:02;;;;;;;5.68;1.55;;;15.60;99.90;;;;;;5071282;28;20059;-50
2022/08/30 01:59:28;;;;;;;4.60;1.80;;;15.50;99.90;;;;;;5071461;28;20028;-52
2022/08/30 02:01:54;;;;;;;4.68;1.65;;;15.50;99.90;;;;;;5071078;28;20016;-52
2022/08/30 02:04:20;;;;;;;4.90;2.40;;;15.50;99.90;;;;;;5070820;28;20033;-47
2022/08/30 02:06:46;;;;;;;7.53;1.90;;;15.50;99.90;;;;;;5071099;28;20036;-47
2022/08/30 02:09:12;;;;;;;4.03;1.60;;;15.50;99.90;;;;;;5071128;28;20031;-49
2022/08/30 02:11:38;;;;;;;5.18;2.00;;;15.50;99.90;;;;;;5070847;28;20029;-49
2022/08/30 02:14:05;;;;;;;7.47;1.83;;;15.40;99.90;;;;;;5071160;28;20523;-49
2022/08/30 02:16:31;;;;;;;7.70;1.73;;;15.50;99.90;;;;;;5071133;28;20399;-51
2022/08/30 02:18:58;;;;;;;6.95;1.90;;;15.50;99.90;;;;;;5070958;28;20498;-46
2022/08/30 02:21:26;;;;;;;3.67;1.80;;;15.40;99.90;;;;;;5070819;28;20523;-46
2022/08/30 02:23:52;;;;;;;6.05;1.55;;;15.40;99.90;;;;;;5071030;28;20062;-46
2022/08/30 02:26:18;;;;;;;5.75;1.50;;;15.40;99.90;;;;;;5070872;28;20039;-46
2022/08/30 02:28:45;;;;;;;6.13;1.85;;;15.40;99.90;;;;;;5071178;28;20029;-53
2022/08/30 02:31:11;;;;;;;4.28;1.60;;;15.40;99.90;;;;;;5070756;28;20044;-46
2022/08/30 02:33:37;;;;;;;5.10;1.40;;;15.40;99.90;;;;;;5071036;28;20048;-48
2022/08/30 02:36:05;;;;;;;3.35;1.58;;;15.30;99.90;;;;;;5070326;28;20467;-47
2022/08/30 02:38:31;;;;;;;6.28;1.50;;;15.30;99.90;;;;;;5070677;28;20115;-46
2022/08/30 02:40:56;;;;;;;4.22;1.45;;;15.30;99.90;;;;;;5070645;28;20099;-47
2022/08/30 02:43:23;;;;;;;5.43;1.60;;;15.30;99.90;;;;;;5069288;28;20032;-48
2022/08/30 02:45:48;;;;;;;4.00;1.58;;;15.30;99.90;;;;;;5070849;28;20029;-49
2022/08/30 02:48:14;;;;;;;6.88;1.45;;;15.30;99.90;;;;;;5070718;28;20027;-46
2022/08/30 02:50:45;;;;;;;10.48;1.90;;;15.30;99.90;;;;;;5070346;28;20055;-46
2022/08/30 02:53:12;;;;;;;4.47;1.50;;;15.30;99.90;;;;;;5070638;28;20453;-49
2022/08/30 02:55:38;;;;;;;3.88;1.65;;;15.30;99.90;;;;;;5070697;28;20078;-51
2022/08/30 02:58:04;;;;;;;4.22;1.90;;;15.20;99.90;;;;;;5070797;28;20429;-50
2022/08/30 03:00:29;;;;;;;4.43;1.55;;;15.20;99.90;;;;;;5070652;28;20119;-47
2022/08/30 03:02:56;;;;;;;4.75;1.58;;;15.20;99.90;;;;;;5070552;28;20021;-47
2022/08/30 03:05:22;;;;;;;6.13;1.50;;;15.10;99.90;;;;;;5070620;28;20036;-52
2022/08/30 03:07:47;;;;;;;6.15;1.58;;;15.10;99.90;;;;;;5070666;28;20471;-48
2022/08/30 03:10:15;;;;;;;3.70;1.40;;;15.10;99.90;;;;;;5070966;28;20025;-49
2022/08/30 03:12:41;;;;;;;5.53;1.65;;;15.10;99.90;;;;;;5070082;28;20032;-49
2022/08/30 03:15:11;;;;;;;4.35;1.50;;;15.00;99.90;;;;;;5070136;28;20099;-48
2022/08/30 03:17:36;;;;;;;4.20;1.50;;;15.00;99.90;;;;;;5070585;28;20104;-49
2022/08/30 03:20:03;;;;;;;4.97;1.42;;;15.00;99.90;;;;;;5070476;28;20088;-47
2022/08/30 03:22:28;;;;;;;5.93;1.52;;;15.00;99.90;;;;;;5070468;28;20101;-46
2022/08/30 03:24:58;;;;;;;5.13;1.48;;;15.00;99.90;;;;;;5070479;28;20528;-49
2022/08/30 03:27:24;;;;;;;8.50;1.60;;;15.00;99.90;;;;;;5070270;28;20399;-47
2022/08/30 03:29:50;;;;;;;5.35;1.50;;;15.00;99.90;;;;;;5070390;28;20479;-46
2022/08/30 03:32:16;;;;;;;4.30;1.60;;;15.00;99.90;;;;;;5070041;28;20093;-50
2022/08/30 03:34:42;;;;;;;4.80;1.67;;;15.00;99.90;;;;;;5070449;28;20033;-46
2022/08/30 03:37:07;;;;;;;5.15;1.50;;;14.90;99.90;;;;;;5071102;28;20035;-47
2022/08/30 03:39:33;;;;;;;4.93;1.70;;;14.90;99.90;;;;;;5074109;28;20086;-52
2022/08/30 03:41:59;;;;;;;3.63;1.40;;;14.80;99.90;;;;;;5073889;28;20090;-54
2022/08/30 03:44:24;;;;;;;6.63;1.65;;;14.80;99.90;;;;;;5073900;28;20371;-47
2022/08/30 03:46:50;;;;;;;5.57;1.77;;;14.80;99.90;;;;;;5073386;28;20553;-47
2022/08/30 03:49:17;;;;;;;3.35;1.48;;;14.80;99.90;;;;;;5073392;28;20029;-49
2022/08/30 03:51:43;;;;;;;4.63;1.42;;;14.80;99.90;;;;;;5073489;28;20049;-50
2022/08/30 03:54:08;;;;;;;5.72;1.90;;;14.80;99.90;;;;;;5073810;28;20035;-51
2022/08/30 03:56:35;;;;;;;2.47;1.13;;;14.70;99.90;;;;;;5073526;28;20124;-50
2022/08/30 03:59:00;;;;;;;6.88;1.73;;;14.70;99.90;;;;;;5073741;28;20509;-47
2022/08/30 04:01:26;;;;;;;3.22;1.50;;;14.70;99.90;;;;;;5073567;28;20025;-51
2022/08/30 04:03:52;;;;;;;2.65;1.40;;;14.70;99.90;;;;;;5073562;28;20040;-50
2022/08/30 04:06:18;;;;;;;4.60;1.50;;;14.60;99.90;;;;;;5073244;28;20024;-54
2022/08/30 04:08:44;;;;;;;4.75;1.80;;;14.60;99.90;;;;;;5072283;28;20407;-49
2022/08/30 04:11:11;;;;;;;6.07;2.15;;;14.60;99.90;;;;;;5073586;28;20190;-51
2022/08/30 04:13:37;;;;;;;4.40;1.60;;;14.60;99.90;;;;;;5073505;28;20020;-50
2022/08/30 04:16:03;;;;;;;2.22;1.38;;;14.60;99.90;;;;;;5073305;28;20031;-52
2022/08/30 04:18:28;;;;;;;5.13;1.77;;;14.60;99.90;;;;;;5073365;28;20029;-46
2022/08/30 04:20:54;;;;;;;5.75;2.00;;;14.60;99.90;;;;;;5073219;28;20158;-49
2022/08/30 04:23:20;;;;;;;4.53;1.40;;;14.60;99.90;;;;;;5073084;28;20016;-48
2022/08/30 04:25:46;;;;;;;2.97;1.60;;;14.70;99.90;;;;;;5072867;28;20024;-46
2022/08/30 04:28:12;;;;;;;3.47;1.33;;;14.60;99.90;;;;;;5072562;28;20025;-47
2022/08/30 04:30:40;;;;;;;3.97;1.58;;;14.60;99.90;;;;;;5072941;28;20039;-47
2022/08/30 04:33:06;;;;;;;4.72;1.50;;;14.60;99.90;;;;;;5072784;28;20028;-48
2022/08/30 04:35:31;;;;;;;2.65;1.35;;;14.60;99.90;;;;;;5067720;28;20091;-47
2022/08/30 04:37:57;;;;;;;3.72;1.90;;;14.60;99.90;;;;;;5072690;28;20028;-53
2022/08/30 04:40:23;;;;;;;5.68;1.92;;;14.60;99.90;;;;;;5072889;28;20028;-49
2022/08/30 04:42:52;;;;;;;5.32;1.60;;;14.60;99.90;;;;;;5072667;28;20046;-49
2022/08/30 04:45:19;;;;;;;6.97;1.95;;;14.60;99.90;;;;;;5072181;28;20048;-47
2022/08/30 04:47:44;;;;;;;4.40;1.58;;;14.60;99.90;;;;;;5072632;28;20032;-48
2022/08/30 04:50:12;;;;;;;5.90;1.60;;;14.50;99.90;;;;;;5071097;28;20170;-49
2022/08/30 04:52:38;;;;;;;3.35;1.30;;;14.50;99.90;;;;;;5072578;28;20552;-48
2022/08/30 04:55:05;;;;;;;4.57;1.50;;;14.60;99.90;;;;;;5072490;28;20021;-46
2022/08/30 04:57:31;;;;;;;4.53;1.63;;;14.60;99.90;;;;;;5072410;28;20029;-46
2022/08/30 04:59:56;;;;;;;4.57;1.58;;;14.60;99.90;;;;;;5072492;28;20067;-46
2022/08/30 05:02:22;;;;;;;4.55;1.70;;;14.60;99.90;;;;;;5072461;28;20044;-49
2022/08/30 05:07:32;;;;;;;4.18;1.58;;;14.60;99.90;;;;;;5066445;28;20027;-50
2022/08/30 05:09:58;;;;;;;4.05;1.73;;;14.60;99.90;;;;;;5071743;28;20028;-49
2022/08/30 05:12:24;;;;;;;5.35;1.80;;;14.60;99.90;;;;;;5072027;28;20070;-48
2022/08/30 05:14:50;;;;;;;3.45;1.48;;;14.50;99.90;;;;;;5072000;28;20024;-47
2022/08/30 05:17:15;;;;;;;4.32;1.63;;;14.60;99.90;;;;;;5071676;28;20441;-50
2022/08/30 05:19:41;;;;;;;5.00;1.45;;;14.60;99.90;;;;;;5071972;28;20025;-46
2022/08/30 05:22:07;;;;;;;7.65;1.60;;;14.60;99.90;;;;;;5072055;28;20032;-48
2022/08/30 05:24:33;;;;;;;6.75;1.35;;;14.60;99.90;;;;;;5071900;28;20043;-46
2022/08/30 05:26:59;;;;;;;5.88;1.67;;;14.70;99.90;;;;;;5071641;28;20379;-46
2022/08/30 05:29:25;;;;;;;5.63;1.80;;;14.70;99.90;;;;;;5072009;28;20028;-45
2022/08/30 05:31:51;;;;;;;8.15;1.63;;;14.80;99.90;;;;;;5071687;28;20097;-46
2022/08/30 05:34:16;;;;;;;6.15;1.80;;;14.80;99.90;;;;;;5070663;28;20028;-46
2022/08/30 05:36:42;;;;;;;4.57;1.50;;;14.90;99.90;;;;;;5071497;28;20031;-49
2022/08/30 05:39:09;;;;;;;5.75;1.70;;;15.00;99.90;;;;;;5071878;28;20391;-46
2022/08/30 05:41:36;;;;;;;5.55;1.80;;;15.00;99.90;;;;;;5071933;28;20038;-51
2022/08/30 05:44:03;;;;;;;9.23;1.50;;;15.10;99.90;;;;;;5071465;28;20027;-52
2022/08/30 05:46:32;;;;;;;3.63;1.55;;;15.10;99.90;;;;;;5071262;28;20028;-49
2022/08/30 05:49:00;;;;;;;6.55;1.80;;;15.20;99.90;;;;;;5071191;28;20020;-46
2022/08/30 05:51:27;;;;;;;9.27;2.05;;;15.20;99.90;;;;;;5061763;28;20061;-47
2022/08/30 05:53:55;;;;;;;5.00;1.80;;;15.30;99.90;;;;;;5071681;28;20046;-48
2022/08/30 05:56:27;;;;;;;6.05;1.80;;;15.40;99.90;;;;;;5071096;28;20491;-46
2022/08/30 05:58:53;;;;;;;4.13;1.42;;;15.50;99.90;;;;;;5071468;28;20041;-46
2022/08/30 06:01:20;;;;;;;4.28;1.52;;;15.60;99.90;;;;;;5069594;28;20021;-47
2022/08/30 06:03:46;;;;;;;6.68;1.90;;;15.70;99.90;;;;;;5071479;28;20039;-46
2022/08/30 06:06:12;;;;;;;5.28;1.45;;;15.80;99.90;;;;;;5070881;28;20414;-48
2022/08/30 06:08:37;;;;;;;6.97;1.77;;;15.90;99.90;;;;;;5071194;28;20103;-46
2022/08/30 06:11:03;;;;;;;4.57;1.67;;;16.00;99.90;;;;;;5071219;28;20025;-46
2022/08/30 06:13:29;;;;;;;6.38;1.77;;;16.00;99.90;;;;;;5071157;28;20024;-46
2022/08/30 06:15:55;;;;;;;5.95;1.90;;;16.10;99.90;;;;;;5070972;28;20357;-49
2022/08/30 06:18:20;;;;;;;7.57;1.95;;;16.20;99.90;;;;;;5071182;28;20009;-46
2022/08/30 06:20:46;;;;;;;7.30;1.92;;;16.20;99.90;;;;;;5071385;28;20040;-47
2022/08/30 06:23:12;;;;;;;6.70;1.42;;;16.30;99.90;;;;;;5071162;28;20576;-46
2022/08/30 06:25:38;;;;;;;7.70;1.63;;;16.40;99.90;;;;;;5070922;28;20028;-46
2022/08/30 06:28:05;;;;;;;5.32;1.88;;;16.50;99.90;;;;;;5070719;28;20027;-45
2022/08/30 06:30:32;;;;;;;6.47;1.60;;;16.60;99.90;;;;;;5070835;28;20504;-46
2022/08/30 06:32:58;;;;;;;4.43;1.80;;;16.70;99.90;;;;;;5071324;28;20029;-45
2022/08/30 06:35:25;;;;;;;5.85;1.80;;;16.80;99.90;;;;;;5070686;28;20380;-50
2022/08/30 06:37:51;;;;;;;4.28;1.40;;;16.90;99.90;;;;;;5071165;28;20032;-51
2022/08/30 06:40:19;;;;;;;8.07;1.73;;;17.30;99.90;;;;;;5070735;28;20029;-48
2022/08/30 06:42:45;;;;;;;6.75;2.15;;;17.70;99.90;;;;;;5070858;28;20028;-49
2022/08/30 06:45:10;;;;;;;5.90;1.95;;;17.90;99.90;;;;;;5070696;28;20047;-50
2022/08/30 06:47:36;;;;;;;4.38;1.60;;;17.90;99.90;;;;;;5069682;28;20368;-51
2022/08/30 06:50:02;;;;;;;7.45;1.65;;;17.90;99.90;;;;;;5070848;28;20059;-47
2022/08/30 06:52:28;;;;;;;5.78;1.60;;;17.90;99.90;;;;;;5071685;28;20052;-47
2022/08/30 06:54:57;;;;;;;6.32;1.65;;;17.80;99.90;;;;;;5075554;28;20451;-47
2022/08/30 06:57:23;;;;;;;7.55;2.00;;;17.70;99.90;;;;;;5066029;28;20020;-51
2022/08/30 06:59:48;;;;;;;4.00;1.77;;;17.70;99.90;;;;;;5066022;28;20029;-48
2022/08/30 07:02:14;;;;;;;6.90;1.90;;;17.80;99.90;;;;;;5068225;28;20048;-49
2022/08/30 07:04:40;;;;;;;5.65;1.70;;;17.90;99.90;;;;;;5066899;28;20035;-48
2022/08/30 07:07:09;;;;;;;6.57;2.05;;;17.90;99.90;;;;;;5068006;28;20107;-46
2022/08/30 07:09:41;;;;;;;4.28;1.40;;;18.00;99.90;;;;;;5056723;28;20036;-47
2022/08/30 07:12:11;;;;;;;5.53;1.55;;;18.20;99.90;;;;;;5064119;28;20035;-48
2022/08/30 07:14:37;;;;;;;4.70;1.58;;;18.50;99.90;;;;;;5072929;28;20032;-48
2022/08/30 07:18:49;;;;;;;3.13;1.63;;;18.90;99.90;;;;;;5074086;28;20028;-49
2022/08/30 07:19:53;;;;;;;7.00;1.60;;;19.40;99.90;;;;;;5074383;28;20515;-49
2022/08/30 07:22:19;;;;;;;9.48;1.40;;;20.10;99.90;;;;;;5074089;28;20032;-48
2022/08/30 07:24:45;;;;;;;6.63;1.70;;;20.60;99.90;;;;;;5074352;28;20044;-47
2022/08/30 07:27:11;;;;;;;6.53;1.80;;;20.70;99.90;;;;;;5055880;28;20057;-49
2022/08/30 07:29:37;;;;;;;8.10;1.70;;;20.60;99.90;;;;;;5068226;28;20035;-50
2022/08/30 07:32:03;;;;;;;5.68;1.63;;;20.30;99.90;;;;;;5066478;28;20421;-50
2022/08/30 07:34:28;;;;;;;4.70;1.30;;;20.20;99.90;;;;;;5069511;28;20035;-53
2022/08/30 07:36:54;;;;;;;6.65;1.73;;;20.20;99.90;;;;;;5068143;28;20020;-56
2022/08/30 07:39:20;;;;;;;9.00;1.83;;;20.10;99.90;;;;;;5060515;28;20104;-48
2022/08/30 07:41:47;;;;;;;4.13;1.52;;;20.10;99.90;;;;;;5064647;28;20025;-51
2022/08/30 07:44:13;;;;;;;8.80;2.08;;;20.20;99.90;;;;;;5073903;28;20031;-50
2022/08/30 07:46:40;;;;;;;6.13;1.55;;;20.40;99.90;;;;;;5063121;28;20031;-51
2022/08/30 07:49:07;;;;;;;6.07;1.70;;;20.60;99.90;;;;;;5063840;28;20115;-48
2022/08/30 07:51:33;;;;;;;5.85;1.67;;;20.40;99.90;;;;;;5071817;28;20044;-52
2022/08/30 07:53:59;;;;;;;6.13;1.73;;;20.40;99.90;;;;;;5065623;28;20036;-49
2022/08/30 07:56:25;;;;;;;7.55;1.65;;;20.40;99.90;;;;;;5068952;28;20035;-46
2022/08/30 07:58:51;;;;;;;7.18;1.88;;;21.20;99.90;;;;;;5072393;28;20078;-49
2022/08/30 08:01:18;;;;;;;6.65;1.50;;;21.70;99.90;;;;;;5066841;28;20024;-51
2022/08/30 08:03:45;;;;;;;5.35;1.42;;;22.20;99.90;;;;;;5056908;28;20036;-47
2022/08/30 08:06:13;;;;;;;6.15;1.75;;;22.90;99.40;;;;;;5054662;28;20029;-45
2022/08/30 08:08:40;;;;;;;5.95;1.55;;;23.50;97.70;;;;;;5064076;28;20067;-47
2022/08/30 08:11:11;;;;;;;5.82;1.48;;;23.90;97.10;;;;;;5058054;28;20037;-46
2022/08/30 08:13:37;;;;;;;4.78;1.88;;;24.60;95.50;;;;;;5065122;28;20044;-51
2022/08/30 08:16:03;;;;;;;6.20;1.55;;;24.90;95.30;;;;;;5071796;28;20079;-50
2022/08/30 08:18:30;;;;;;;4.65;1.60;;;25.30;95.50;;;;;;5071510;28;20427;-51
2022/08/30 08:20:56;;;;;;;5.35;1.73;;;25.30;94.10;;;;;;5072102;28;20046;-52
2022/08/30 08:23:22;;;;;;;6.03;1.67;;;25.80;93.50;;;;;;5072925;28;20108;-48
2022/08/30 08:25:48;;;;;;;5.18;1.17;;;26.20;92.60;;;;;;5072546;28;20112;-49
2022/08/30 08:28:14;;;;;;;4.88;1.60;;;26.60;92.80;;;;;;5072774;28;20036;-47
2022/08/30 08:30:40;;;;;;;6.50;1.70;;;27.40;91.50;;;;;;5067303;28;20021;-48
2022/08/30 08:33:05;;;;;;;4.07;1.33;;;27.90;91.40;;;;;;5066510;28;20098;-49
2022/08/30 08:35:32;;;;;;;4.80;1.58;;;28.50;90.10;;;;;;5072576;28;20042;-47
2022/08/30 08:37:58;;;;;;;6.28;2.03;;;28.40;89.10;;;;;;5072618;28;20505;-48
2022/08/30 08:40:25;;;;;;;5.30;1.98;;;27.80;87.90;;;;;;5060946;28;20031;-49
2022/08/30 08:43:16;;;;;;;13.77;4.55;;;26.80;90.00;;;;;;5063540;28;20020;-46
2022/08/30 08:45:50;;;;;;;4.75;1.65;;;26.30;91.20;;;;;;5071714;28;20123;-53
2022/08/30 08:48:42;;;;;;;4.13;1.30;;;25.80;91.80;;;;;;5072562;28;20044;-50
2022/08/30 08:54:09;;;;;;;7.28;1.70;;;24.30;93.40;;;;;;5072530;28;20044;-48
2022/08/30 08:56:36;;;;;;;6.30;1.70;;;24.20;94.40;;;;;;5059530;28;20025;-49
2022/08/30 08:59:06;;;;;;;6.72;1.63;;;24.20;95.00;;;;;;5068876;28;20051;-52
2022/08/30 09:01:32;;;;;;;4.05;1.52;;;24.80;94.10;;;;;;5072028;28;20033;-48
2022/08/30 09:04:04;;;;;;;5.90;1.80;;;24.30;93.80;;;;;;5071975;28;20193;-54
2022/08/30 09:06:47;;;;;;;6.90;1.75;;;24.00;94.80;;;;;;5071860;28;20028;-47
2022/08/30 09:09:15;;;;;;;5.55;1.83;;;23.60;95.00;;;;;;5072120;28;20076;-50
2022/08/30 09:11:42;;;;;;;6.20;1.58;;;24.00;96.90;;;;;;5072294;28;20039;-51
2022/08/30 09:14:18;;;;;;;7.75;1.85;;;24.00;95.20;;;;;;5072012;28;20016;-51
2022/08/30 09:16:50;;;;;;;7.07;1.70;;;23.80;95.70;;;;;;5071998;28;20074;-50
2022/08/30 09:19:36;;;;;;;4.90;1.70;;;24.10;95.90;;;;;;5054666;28;20380;-48
2022/08/30 09:22:36;;;;;;;7.28;1.98;;;24.40;95.60;;;;;;5049210;28;20120;-49
2022/08/30 09:25:18;;;;;;;5.53;1.90;;;24.70;95.20;;;;;;5057016;28;20036;-46
2022/08/30 09:27:47;;;;;;;5.03;1.83;;;25.00;94.40;;;;;;5066665;28;20063;-50
2022/08/30 09:30:28;;;;;;;6.95;2.00;;;25.00;94.60;;;;;;5062498;28;20058;-48
2022/08/30 09:32:59;;;;;;;6.78;2.42;;;25.10;93.90;;;;;;5057052;28;20494;-55
2022/08/30 09:35:36;;;;;;;7.28;2.35;;;24.70;93.80;;;;;;5070635;28;20035;-48
2022/08/30 09:38:09;;;;;;;6.35;2.05;;;24.40;94.50;;;;;;5069543;28;20475;-49
2022/08/30 09:40:43;;;;;;;6.95;1.90;;;24.40;95.50;;;;;;5065062;28;20029;-52
2022/08/30 09:43:30;;;;;;;5.18;2.00;;;24.20;95.60;;;;;;5067108;28;20402;-50
2022/08/30 09:45:59;;;;;;;9.68;2.35;;;24.30;95.00;;;;;;5064034;28;20475;-49
2022/08/30 09:48:39;;;;;;;5.35;2.00;;;24.40;95.40;;;;;;5068717;28;20108;-51
2022/08/30 09:51:11;;;;;;;7.40;2.15;;;24.50;95.30;;;;;;5068866;28;20035;-48
2022/08/30 09:54:08;;;;;;;5.97;1.90;;;24.60;95.00;;;;;;5070973;28;20016;-49
2022/08/30 09:56:59;;;;;;;5.93;1.90;;;24.40;95.20;;;;;;5032470;28;20043;-54
2022/08/30 09:59:28;;;;;;;7.18;1.90;;;24.40;96.00;;;;;;5071231;28;20103;-51
2022/08/30 10:02:04;;;;;;;8.35;1.90;;;24.40;95.40;;;;;;5059571;28;20470;-50
2022/08/30 10:04:46;;;;;;;5.80;2.05;;;24.00;95.10;;;;;;5060375;28;20076;-50
2022/08/30 10:07:39;;;;;;;8.02;2.10;;;24.20;96.90;;;;;;5065662;28;20387;-48
2022/08/30 10:10:27;;;;;;;6.90;2.30;;;24.40;96.00;;;;;;5061508;28;20032;-48
2022/08/30 10:13:23;;;;;;;8.18;1.95;;;25.00;95.40;;;;;;5068436;28;20017;-51
2022/08/30 10:16:15;;;;;;;8.73;1.77;;;25.20;95.00;;;;;;5067987;28;20025;-49
2022/08/30 10:18:58;;;;;;;6.55;1.88;;;24.90;95.00;;;;;;5069230;28;20434;-48
2022/08/30 10:21:35;;;;;;;7.13;2.08;;;24.70;94.60;;;;;;5067476;28;20021;-50
2022/08/30 10:24:06;;;;;;;5.63;1.92;;;24.70;94.80;;;;;;5066759;28;20124;-47
2022/08/30 10:26:37;;;;;;;7.22;2.00;;;24.40;95.50;;;;;;5062656;28;20042;-47
2022/08/30 10:29:10;;;;;;;6.32;2.20;;;23.90;95.20;;;;;;5069563;28;20024;-48
2022/08/30 10:31:40;;;;;;;7.22;2.05;;;23.70;95.90;;;;;;5069826;28;20498;-49
2022/08/30 10:34:19;;;;;;;5.90;1.65;;;23.80;96.40;;;;;;5064541;28;20025;-48
2022/08/30 10:36:56;;;;;;;4.55;1.50;;;24.00;96.80;;;;;;5069535;28;20025;-50
2022/08/30 10:39:27;;;;;;;8.23;1.80;;;24.80;95.70;;;;;;5069887;28;20034;-53
2022/08/30 10:42:02;;;;;;;7.10;2.15;;;25.10;94.50;;;;;;5069114;28;20103;-52
2022/08/30 10:44:36;;;;;;;7.32;1.90;;;25.10;94.60;;;;;;5070119;28;20021;-49
2022/08/30 10:47:16;;;;;;;9.85;2.13;;;25.10;94.40;;;;;;5067910;28;20073;-49
2022/08/30 10:49:48;;;;;;;7.70;1.92;;;25.20;94.70;;;;;;5069187;28;20373;-50
2022/08/30 10:52:23;;;;;;;9.93;2.28;;;25.30;94.40;;;;;;5069173;28;20076;-48
2022/08/30 10:55:09;;;;;;;6.63;2.00;;;25.30;94.60;;;;;;5070559;28;20029;-49
2022/08/30 10:57:35;;;;;;;5.47;2.10;;;25.10;94.40;;;;;;5072076;28;20033;-48
2022/08/30 11:00:06;;;;;;;7.90;2.22;;;24.90;94.60;;;;;;5066502;28;20035;-49
2022/08/30 11:02:40;;;;;;;4.82;1.85;;;24.60;94.90;;;;;;5073517;28;20048;-48
2022/08/30 11:05:27;;;;;;;7.22;1.88;;;24.40;94.60;;;;;;5068404;28;20408;-48
2022/08/30 11:08:17;;;;;;;5.00;1.83;;;24.50;95.50;;;;;;5074158;28;20490;-50
2022/08/30 11:11:24;;;;;;;5.40;2.13;;;24.60;95.20;;;;;;5073702;28;20021;-51
2022/08/30 11:13:50;;;;;;;8.27;2.20;;;24.40;95.00;;;;;;5073940;28;20020;-51
2022/08/30 11:16:18;;;;;;;5.70;1.80;;;24.40;95.10;;;;;;5074275;28;20048;-48
2022/08/30 11:18:53;;;;;;;5.20;2.28;;;24.50;95.10;;;;;;5074142;28;20033;-54
2022/08/30 11:21:32;;;;;;;6.50;2.05;;;24.60;96.20;;;;;;5071022;28;20089;-50
2022/08/30 11:24:08;;;;;;;6.65;2.08;;;24.70;94.10;;;;;;5070792;28;20032;-50
2022/08/30 11:26:47;;;;;;;5.18;1.85;;;24.50;94.20;;;;;;5069668;28;20031;-55
2022/08/30 11:29:24;;;;;;;;;;;24.80;95.00;;;;;;5065252;28;20604;-52
2022/08/30 11:31:50;;;;;;;4.18;1.80;;;24.60;93.70;;;;;;5070753;28;20420;-51
2022/08/30 11:34:45;;;;;;;4.60;1.90;;;24.80;93.80;;;;;;5072330;28;20032;-51
2022/08/30 11:37:35;;;;;;;5.20;1.90;;;24.60;93.60;;;;;;5072423;28;20511;-53
2022/08/30 11:40:05;;;;;;;6.53;1.98;;;24.50;94.10;;;;;;5071832;28;20525;-53
2022/08/30 11:42:54;;;;;;;5.75;1.90;;;24.40;94.40;;;;;;5071557;28;20021;-51
2022/08/30 11:45:23;;;;;;;5.70;1.70;;;24.50;93.90;;;;;;5063986;28;20040;-48
2022/08/30 11:47:49;;;;;;;5.22;1.77;;;25.30;94.50;;;;;;5072511;28;20102;-50
2022/08/30 11:50:24;;;;;;;4.00;1.73;;;25.40;92.40;;;;;;5068218;28;20063;-53
2022/08/30 11:52:56;;;;;;;6.50;1.80;;;25.80;92.20;;;;;;5070375;28;20093;-48
2022/08/30 11:55:44;;;;;;;6.07;1.90;;;25.60;91.00;;;;;;5069627;28;20017;-52
2022/08/30 11:58:36;;;;;;;4.22;1.92;;;25.20;90.80;;;;;;5067090;28;20052;-49
2022/08/30 12:01:37;;;;;;;5.57;1.70;;;24.70;92.30;;;;;;5058110;28;20035;-51
2022/08/30 12:04:05;;;;;;;5.65;1.83;;;25.20;93.00;;;;;;5069826;28;20578;-53
2022/08/30 12:06:40;;;;;;;4.82;2.05;;;25.50;92.30;;;;;;5070765;28;20033;-50
2022/08/30 12:09:31;;;;;;;8.05;1.70;;;26.30;92.10;;;;;;5074628;28;20486;-50
2022/08/30 12:11:57;;;;;;;3.90;1.67;;;26.50;90.10;;;;;;5066475;28;20036;-49
2022/08/30 12:14:38;;;;;;;4.57;1.88;;;26.20;90.50;;;;;;5071799;28;20081;-49
2022/08/30 12:20:36;;;;;;;5.18;1.90;;;25.80;90.50;;;;;;5065637;28;20252;-52
2022/08/30 12:23:18;;;;;;;5.95;1.70;;;25.00;90.90;;;;;;5070353;28;20368;-50
2022/08/30 12:25:44;;;;;;;8.73;1.90;;;25.80;88.90;;;;;;5067614;28;20028;-52
2022/08/30 12:28:27;;;;;;;6.78;1.98;;;25.90;90.10;;;;;;5072929;28;20383;-51
2022/08/30 12:30:53;;;;;;;5.95;2.22;;;26.20;89.40;;;;;;5072647;28;20037;-47
2022/08/30 12:33:31;;;;;;;5.55;2.20;;;26.20;85.90;;;;;;5072831;28;20021;-54
2022/08/30 12:35:58;;;;;;;5.93;1.88;;;26.10;86.80;;;;;;5064827;28;20340;-49
2022/08/30 12:38:24;;;;;;;4.93;2.17;;;26.50;86.40;;;;;;5072708;28;20032;-51
2022/08/30 12:40:52;;;;;;;5.70;2.05;;;26.30;86.00;;;;;;5072385;28;20028;-49
2022/08/30 12:43:46;;;;;;;4.23;1.77;;;26.50;84.50;;;;;;5062181;28;20112;-50
2022/08/30 12:46:15;;;;;;;5.93;1.55;;;26.70;82.70;;;;;;5072767;28;20111;-48
2022/08/30 12:48:41;;;;;;;4.80;1.92;;;26.20;83.20;;;;;;5067243;28;20025;-47
2022/08/30 12:51:09;;;;;;;6.90;2.10;;;26.30;83.90;;;;;;5068968;28;20036;-49
2022/08/30 12:53:41;;;;;;;6.03;1.90;;;26.40;85.60;;;;;;5068974;28;20017;-47
2022/08/30 12:56:13;;;;;;;6.03;1.80;;;26.10;83.50;;;;;;5068518;28;20029;-49
2022/08/30 12:58:46;;;;;;;3.88;1.67;;;26.40;85.10;;;;;;5072452;28;20017;-48
2022/08/30 13:01:13;;;;;;;6.35;2.00;;;26.20;84.80;;;;;;5071895;28;20402;-48
2022/08/30 13:03:40;;;;;;;6.57;1.90;;;26.10;83.80;;;;;;5065141;28;20116;-47
2022/08/30 13:06:07;;;;;;;5.85;1.98;;;26.40;85.70;;;;;;5069177;28;20029;-52
2022/08/30 13:08:50;;;;;;;6.85;1.67;;;26.50;85.90;;;;;;5064566;28;20021;-48
2022/08/30 13:11:21;;;;;;;5.72;2.08;;;26.60;87.30;;;;;;5068150;28;20048;-50
2022/08/30 13:13:50;;;;;;;4.90;2.05;;;26.70;84.40;;;;;;5059420;28;20102;-51